createdAt,value
2019-04-14T00:02:05.275Z,10.93
2019-04-14T00:04:40.134Z,10.38
2019-04-14T00:07:10.183Z,13.30
2019-04-14T00:09:40.096Z,11.28
2019-04-14T00:12:12.080Z,11.22
2019-04-14T00:14:59.823Z,10.63
2019-04-14T00:18:05.447Z,11.50
2019-04-14T00:20:35.818Z,11.08
2019-04-14T00:23:23.737Z,11.22
2019-04-14T00:26:11.534Z,11.38
2019-04-14T00:28:40.954Z,11.83
2019-04-14T00:31:45.929Z,10.93
2019-04-14T00:34:46.380Z,12.33
2019-04-14T00:37:38.469Z,11.80
2019-04-14T00:40:15.172Z,11.28
2019-04-14T00:43:19.996Z,13.50
2019-04-14T00:46:21.079Z,11.27
2019-04-14T00:48:51.641Z,12.63
2019-04-14T00:51:40.786Z,12.37
2019-04-14T00:54:10.846Z,11.57
2019-04-14T00:56:58.511Z,11.75
2019-04-14T01:00:03.918Z,12.37
2019-04-14T01:02:33.996Z,13.80
2019-04-14T01:05:21.740Z,11.53
2019-04-14T01:08:27.126Z,11.18
2019-04-14T01:11:14.118Z,14.43
2019-04-14T01:13:44.017Z,12.80
2019-04-14T01:16:17.438Z,11.68
2019-04-14T01:18:45.104Z,11.45
2019-04-14T01:21:15.344Z,12.85
2019-04-14T01:23:45.471Z,12.98
2019-04-14T01:26:15.929Z,12.47
2019-04-14T01:28:46.112Z,12.05
2019-04-14T01:31:16.215Z,12.63
2019-04-14T01:33:45.344Z,12.55
2019-04-14T01:36:14.856Z,12.68
2019-04-14T01:38:49.262Z,12.73
2019-04-14T01:41:19.357Z,13.83
2019-04-14T01:43:49.613Z,14.75
2019-04-14T01:46:24.659Z,13.30
2019-04-14T01:48:50.149Z,13.97
2019-04-14T01:51:54.852Z,12.95
2019-04-14T01:54:38.865Z,14.18
2019-04-14T01:57:17.574Z,11.93
2019-04-14T01:59:48.257Z,13.32
2019-04-14T02:02:20.577Z,12.80
2019-04-14T02:04:50.715Z,13.60
2019-04-14T02:07:21.193Z,12.90
2019-04-14T02:09:51.104Z,14.33
2019-04-14T02:12:21.417Z,13.45
2019-04-14T02:14:51.644Z,14.07
2019-04-14T02:17:22.072Z,11.90
2019-04-14T02:19:52.360Z,12.10
2019-04-14T02:22:22.396Z,14.47
2019-04-14T02:24:52.831Z,12.50
2019-04-14T02:27:23.164Z,12.75
2019-04-14T02:29:53.752Z,15.83
2019-04-14T02:32:54.914Z,13.10
2019-04-14T02:35:20.901Z,11.78
2019-04-14T02:37:58.427Z,13.13
2019-04-14T02:40:29.134Z,12.58
2019-04-14T02:45:33.161Z,11.83
2019-04-14T02:48:03.286Z,14.50
2019-04-14T02:50:24.511Z,13.13
2019-04-14T02:53:01.621Z,12.37
2019-04-14T02:55:21.670Z,15.23
2019-04-14T02:58:04.467Z,12.95
2019-04-14T03:00:39.074Z,13.43
2019-04-14T03:02:56.959Z,12.50
2019-04-14T03:05:42.346Z,12.43
2019-04-14T03:10:45.271Z,11.35
2019-04-14T03:13:27.058Z,12.00
2019-04-14T03:15:39.625Z,11.53
2019-04-14T03:21:19.591Z,11.48
2019-04-14T03:24:12.731Z,10.28
2019-04-14T03:27:04.967Z,10.93
2019-04-14T03:29:37.033Z,11.03
2019-04-14T03:44:49.270Z,10.80
2019-04-14T03:54:45.560Z,10.82
2019-04-14T03:56:55.716Z,12.33
2019-04-14T03:59:26.175Z,12.23
2019-04-14T04:01:56.635Z,11.48
2019-04-14T04:04:27.326Z,11.73
2019-04-14T04:06:57.468Z,10.43
2019-04-14T04:09:41.256Z,10.90
2019-04-14T04:12:11.666Z,10.88
2019-04-14T04:14:41.970Z,10.70
2019-04-14T04:17:34.197Z,11.22
2019-04-14T04:20:32.861Z,11.07
2019-04-14T04:23:16.429Z,11.47
2019-04-14T04:26:00.032Z,10.72
2019-04-14T04:28:54.180Z,12.18
2019-04-14T04:31:54.799Z,11.65
2019-04-14T04:34:43.107Z,12.00
2019-04-14T04:37:23.516Z,11.20
2019-04-14T04:39:54.021Z,13.03
2019-04-14T04:42:24.355Z,11.38
2019-04-14T04:44:53.823Z,11.48
2019-04-14T04:47:23.171Z,11.57
2019-04-14T04:49:53.346Z,10.50
2019-04-14T04:52:23.656Z,10.95
2019-04-14T04:54:53.781Z,11.70
2019-04-14T04:57:24.195Z,11.93
2019-04-14T04:59:53.970Z,11.57
2019-04-14T05:02:24.470Z,10.85
2019-04-14T05:04:54.801Z,11.30
2019-04-14T05:07:25.220Z,11.20
2019-04-14T05:10:17.464Z,11.38
2019-04-14T05:13:18.392Z,11.43
2019-04-14T05:15:55.192Z,11.93
2019-04-14T05:18:26.776Z,11.53
2019-04-14T05:20:57.341Z,11.78
2019-04-14T05:23:27.785Z,11.50
2019-04-14T05:25:58.142Z,11.10
2019-04-14T05:28:28.740Z,12.05
2019-04-14T05:30:58.957Z,10.75
2019-04-14T05:33:29.333Z,10.48
2019-04-14T05:35:59.904Z,10.80
2019-04-14T05:38:32.237Z,10.95
2019-04-14T05:41:02.558Z,12.07
2019-04-14T05:43:42.627Z,10.35
2019-04-14T05:46:03.489Z,9.75
2019-04-14T05:48:33.747Z,9.15
2019-04-14T05:51:04.188Z,8.83
2019-04-14T05:53:33.603Z,8.90
2019-04-14T05:56:03.548Z,8.98
2019-04-14T05:58:33.925Z,9.03
2019-04-14T06:01:04.509Z,9.30
2019-04-14T06:03:34.284Z,8.83
2019-04-14T06:06:03.749Z,7.72
2019-04-14T06:08:33.312Z,8.33
2019-04-14T06:11:02.647Z,7.90
2019-04-14T06:13:32.147Z,8.18
2019-04-14T06:16:01.648Z,8.10
2019-04-14T06:18:30.991Z,7.58
2019-04-14T06:21:00.307Z,7.33
2019-04-14T06:23:29.647Z,7.95
2019-04-14T06:26:00.008Z,8.13
2019-04-14T06:28:29.487Z,7.80
2019-04-14T06:31:29.774Z,11.45
2019-04-14T06:34:03.892Z,7.87
2019-04-14T06:36:51.328Z,8.23
2019-04-14T06:39:23.903Z,8.10
2019-04-14T06:41:53.296Z,7.85
2019-04-14T06:44:22.799Z,8.40
2019-04-14T06:46:52.214Z,7.83
2019-04-14T06:49:21.543Z,9.43
2019-04-14T06:51:50.975Z,8.45
2019-04-14T06:54:20.325Z,8.48
2019-04-14T06:56:49.615Z,8.78
2019-04-14T06:59:18.889Z,8.48
2019-04-14T07:01:48.329Z,8.83
2019-04-14T07:04:17.744Z,8.70
2019-04-14T07:06:47.111Z,8.58
2019-04-14T07:09:16.425Z,9.13
2019-04-14T07:11:45.962Z,9.15
2019-04-14T07:14:15.357Z,9.55
2019-04-14T07:16:44.729Z,9.50
2019-04-14T07:19:15.039Z,9.93
2019-04-14T07:22:04.126Z,11.00
2019-04-14T07:24:36.190Z,10.38
2019-04-14T07:27:05.888Z,10.35
2019-04-14T07:29:57.915Z,9.58
2019-04-14T07:32:45.970Z,9.93
2019-04-14T07:35:40.021Z,10.05
2019-04-14T07:38:34.262Z,10.63
2019-04-14T07:41:22.600Z,10.72
2019-04-14T07:44:02.715Z,10.93
2019-04-14T07:46:42.463Z,11.30
2019-04-14T07:49:43.021Z,12.70
2019-04-14T07:52:25.276Z,10.58
2019-04-14T07:55:11.606Z,10.55
2019-04-14T07:58:05.754Z,12.07
2019-04-14T08:00:42.469Z,11.50
2019-04-14T08:03:24.653Z,10.63
2019-04-14T08:05:54.124Z,11.18
2019-04-14T08:08:23.554Z,12.47
2019-04-14T08:10:52.887Z,12.03
2019-04-14T08:13:22.424Z,11.73
2019-04-14T08:15:52.005Z,11.88
2019-04-14T08:18:21.282Z,12.53
2019-04-14T08:20:50.637Z,12.07
2019-04-14T08:23:20.706Z,11.45
2019-04-14T08:25:50.331Z,12.50
2019-04-14T08:28:21.350Z,11.50
2019-04-14T08:30:50.840Z,12.43
2019-04-14T08:33:24.808Z,12.45
2019-04-14T08:35:54.415Z,13.00
2019-04-14T08:38:23.984Z,12.33
2019-04-14T08:40:53.554Z,13.20
2019-04-14T08:43:38.064Z,11.68
2019-04-14T08:46:44.623Z,13.62
2019-04-14T08:49:48.160Z,13.98
2019-04-14T08:52:29.998Z,14.20
2019-04-14T08:55:12.021Z,14.73
2019-04-14T08:57:54.068Z,13.95
2019-04-14T09:00:41.443Z,12.30
2019-04-14T09:03:28.564Z,12.70
2019-04-14T09:06:09.409Z,12.65
2019-04-14T09:09:01.068Z,14.53
2019-04-14T09:11:35.143Z,13.53
2019-04-14T09:14:04.416Z,13.75
2019-04-14T09:16:33.700Z,12.93
2019-04-14T09:19:07.816Z,13.55
2019-04-14T09:21:34.059Z,14.23
2019-04-14T09:24:03.466Z,13.18
2019-04-14T09:26:32.788Z,12.70
2019-04-14T09:29:02.133Z,13.08
2019-04-14T09:31:31.444Z,12.90
2019-04-14T09:34:00.809Z,13.55
2019-04-14T09:36:30.276Z,12.93
2019-04-14T09:38:59.784Z,13.50
2019-04-14T09:41:29.150Z,13.18
2019-04-14T09:43:58.644Z,12.82
2019-04-14T09:46:28.271Z,12.98
2019-04-14T09:48:57.822Z,12.65
2019-04-14T09:51:27.374Z,13.50
2019-04-14T09:53:56.959Z,14.00
2019-04-14T09:56:26.260Z,12.15
2019-04-14T09:58:55.747Z,13.40
2019-04-14T10:01:25.655Z,13.50
2019-04-14T10:03:55.241Z,12.50
2019-04-14T10:06:24.767Z,13.65
2019-04-14T10:08:54.368Z,13.10
2019-04-14T10:11:23.996Z,12.60
2019-04-14T10:13:53.654Z,13.62
2019-04-14T10:16:23.272Z,14.27
2019-04-14T10:18:52.782Z,12.93
2019-04-14T10:21:22.366Z,14.85
2019-04-14T10:23:52.060Z,13.25
2019-04-14T10:26:21.499Z,13.33
2019-04-14T10:28:51.031Z,15.35
2019-04-14T10:31:20.546Z,13.88
2019-04-14T10:33:50.135Z,13.38
2019-04-14T10:36:19.601Z,13.78
2019-04-14T10:38:49.140Z,14.47
2019-04-14T10:41:18.869Z,13.88
2019-04-14T10:43:48.850Z,14.33
2019-04-14T10:46:18.966Z,12.95
2019-04-14T10:48:48.727Z,13.25
2019-04-14T10:51:29.572Z,12.82
2019-04-14T10:53:49.630Z,13.77
2019-04-14T10:56:19.293Z,13.00
2019-04-14T10:58:48.897Z,13.00
2019-04-14T11:01:18.495Z,12.75
2019-04-14T11:03:48.008Z,13.53
2019-04-14T11:06:39.196Z,14.60
2019-04-14T11:09:12.339Z,14.70
2019-04-14T11:11:41.651Z,12.90
2019-04-14T11:14:10.949Z,13.03
2019-04-14T11:16:40.263Z,13.53
2019-04-14T11:19:09.760Z,13.20
2019-04-14T11:21:42.840Z,13.80
2019-04-14T11:24:10.565Z,14.03
2019-04-14T11:26:40.167Z,13.35
2019-04-14T11:29:09.742Z,12.10
2019-04-14T11:31:52.797Z,14.25
2019-04-14T11:34:24.043Z,13.55
2019-04-14T11:37:30.675Z,14.03
2019-04-14T11:40:00.413Z,13.53
2019-04-14T11:42:29.912Z,14.13
2019-04-14T11:44:59.669Z,14.47
2019-04-14T11:47:29.105Z,13.18
2019-04-14T11:49:58.603Z,13.70
2019-04-14T11:52:28.132Z,13.43
2019-04-14T11:54:57.803Z,13.53
2019-04-14T11:57:27.482Z,13.85
2019-04-14T12:00:18.773Z,13.55
2019-04-14T12:03:09.893Z,13.15
2019-04-14T12:05:58.138Z,15.20
2019-04-14T12:08:36.595Z,12.73
2019-04-14T12:11:05.984Z,14.23
2019-04-14T12:13:35.292Z,12.45
2019-04-14T12:16:04.730Z,11.83
2019-04-14T12:18:33.999Z,11.85
2019-04-14T12:21:03.301Z,13.35
2019-04-14T12:23:32.533Z,12.55
2019-04-14T12:26:05.444Z,12.93
2019-04-14T12:28:33.886Z,11.60
2019-04-14T12:31:04.093Z,11.38
2019-04-14T12:33:33.559Z,11.78
2019-04-14T12:36:03.312Z,11.80
2019-04-14T12:38:32.625Z,11.95
2019-04-14T12:41:02.961Z,11.33
2019-04-14T12:43:43.423Z,12.10
2019-04-14T12:46:43.775Z,13.28
2019-04-14T12:49:20.542Z,11.08
2019-04-14T12:52:20.294Z,12.55
2019-04-14T12:54:38.620Z,12.98
2019-04-14T12:57:07.955Z,11.15
2019-04-14T12:59:37.259Z,13.22
2019-04-14T13:02:14.362Z,11.70
2019-04-14T13:04:43.683Z,14.03
2019-04-14T13:07:13.055Z,12.43
2019-04-14T13:09:42.405Z,11.65
2019-04-14T13:12:11.679Z,12.05
2019-04-14T13:14:40.993Z,12.25
2019-04-14T13:17:10.299Z,10.05
2019-04-14T13:19:39.669Z,10.88
2019-04-14T13:22:08.992Z,10.80
2019-04-14T13:24:38.316Z,12.25
2019-04-14T13:27:07.644Z,11.45
2019-04-14T13:29:36.928Z,11.60
2019-04-14T13:32:06.712Z,10.88
2019-04-14T13:34:36.083Z,11.10
2019-04-14T13:37:05.529Z,10.05
2019-04-14T13:39:34.870Z,9.85
2019-04-14T13:42:04.156Z,10.32
2019-04-14T13:44:33.463Z,12.00
2019-04-14T13:47:02.854Z,11.08
2019-04-14T13:49:32.129Z,12.00
2019-04-14T13:52:01.492Z,12.47
2019-04-14T13:54:30.774Z,11.03
2019-04-14T13:57:00.142Z,10.90
2019-04-14T13:59:29.711Z,9.95
2019-04-14T14:01:59.307Z,9.40
2019-04-14T14:04:28.645Z,11.57
2019-04-14T14:06:57.940Z,10.90
2019-04-14T14:09:27.272Z,9.35
2019-04-14T14:12:08.863Z,9.68
2019-04-14T14:14:55.917Z,10.40
2019-04-14T14:17:47.774Z,9.70
2019-04-14T14:20:36.988Z,12.67
2019-04-14T14:23:28.123Z,10.70
2019-04-14T14:26:03.882Z,9.43
2019-04-14T14:28:33.164Z,9.50
2019-04-14T14:31:02.473Z,10.82
2019-04-14T14:33:31.760Z,10.00
2019-04-14T14:36:01.085Z,10.48
2019-04-14T14:38:30.388Z,11.05
2019-04-14T14:41:01.805Z,12.07
2019-04-14T14:43:31.154Z,12.58
2019-04-14T14:46:37.766Z,11.65
2019-04-14T14:49:28.808Z,10.77
2019-04-14T14:52:09.504Z,11.33
2019-04-14T14:54:39.052Z,12.50
2019-04-14T14:57:08.546Z,10.58
2019-04-14T14:59:38.333Z,10.58
2019-04-14T15:02:08.123Z,11.90
2019-04-14T15:04:37.759Z,9.78
2019-04-14T15:07:07.278Z,9.95
2019-04-14T15:09:36.899Z,11.78
2019-04-14T15:12:06.437Z,10.35
2019-04-14T15:14:35.753Z,9.05
2019-04-14T15:17:06.987Z,9.43
2019-04-14T15:19:36.283Z,11.40
2019-04-14T15:22:05.808Z,10.33
2019-04-14T15:24:35.140Z,11.35
2019-04-14T15:27:04.588Z,13.87
2019-04-14T15:29:33.889Z,11.85
2019-04-14T15:32:03.488Z,11.25
2019-04-14T15:34:33.006Z,12.78
2019-04-14T15:37:02.465Z,10.25
2019-04-14T15:39:31.735Z,9.25
2019-04-14T15:42:01.097Z,13.32
2019-04-14T15:44:30.512Z,12.95
2019-04-14T15:46:59.789Z,17.73
2019-04-14T15:49:29.288Z,12.00
2019-04-14T15:54:47.237Z,13.28
2019-04-14T15:57:41.376Z,11.53
2019-04-14T16:00:28.920Z,12.75
2019-04-14T16:03:16.083Z,13.85
2019-04-14T16:05:53.398Z,14.93
2019-04-14T16:08:32.528Z,12.75
2019-04-14T16:11:13.591Z,11.88
2019-04-14T16:14:02.718Z,12.68
2019-04-14T16:16:49.701Z,13.30
2019-04-14T16:19:33.376Z,12.53
2019-04-14T16:22:02.752Z,15.23
2019-04-14T16:24:32.091Z,11.97
2019-04-14T16:27:07.681Z,10.85
2019-04-14T16:29:41.977Z,16.82
2019-04-14T16:32:18.629Z,17.65
2019-04-14T16:34:53.934Z,13.03
2019-04-14T16:37:23.557Z,10.50
2019-04-14T16:39:52.987Z,11.15
2019-04-14T16:42:22.431Z,11.75
2019-04-14T16:44:51.781Z,11.20
2019-04-14T16:47:21.089Z,10.70
2019-04-14T16:49:50.389Z,11.15
2019-04-14T16:52:41.397Z,10.48
2019-04-14T16:55:30.105Z,9.53
2019-04-14T16:58:25.734Z,9.15
2019-04-14T17:00:59.964Z,11.73
2019-04-14T17:03:29.227Z,9.85
2019-04-14T17:05:58.553Z,10.90
2019-04-14T17:08:27.864Z,8.70
2019-04-14T17:10:57.575Z,9.45
2019-04-14T17:13:28.684Z,9.00
2019-04-14T17:16:10.104Z,8.98
2019-04-14T17:19:10.518Z,8.95
2019-04-14T17:22:04.591Z,10.23
2019-04-14T17:25:01.766Z,9.75
2019-04-14T17:27:39.029Z,8.85
2019-04-14T17:30:39.990Z,10.43
2019-04-14T17:33:40.236Z,9.88
2019-04-14T17:36:22.366Z,10.90
2019-04-14T17:39:20.098Z,10.43
2019-04-14T17:42:11.102Z,10.23
2019-04-14T17:44:48.205Z,10.63
2019-04-14T17:47:38.146Z,10.70
2019-04-14T17:50:40.797Z,10.08
2019-04-14T17:53:22.112Z,9.33
2019-04-14T17:56:09.125Z,8.88
2019-04-14T17:58:57.455Z,8.58
2019-04-14T18:01:40.096Z,8.15
2019-04-14T18:04:37.580Z,8.73
2019-04-14T18:07:12.911Z,9.33
2019-04-14T18:10:07.383Z,9.48
2019-04-14T18:12:58.614Z,11.60
2019-04-14T18:15:43.748Z,8.80
2019-04-14T18:18:19.778Z,8.83
2019-04-14T18:20:55.272Z,8.53
2019-04-14T18:23:24.571Z,9.70
2019-04-14T18:25:53.912Z,10.75
2019-04-14T18:28:39.112Z,8.85
2019-04-14T18:31:30.416Z,8.48
2019-04-14T18:34:24.986Z,9.68
2019-04-14T18:37:00.990Z,9.15
2019-04-14T18:39:58.828Z,7.83
2019-04-14T18:42:41.272Z,9.78
2019-04-14T18:45:30.908Z,10.82
2019-04-14T18:48:10.934Z,8.35
2019-04-14T18:50:53.028Z,12.13
2019-04-14T18:53:27.541Z,7.15
2019-04-14T18:56:18.788Z,6.50
2019-04-14T18:58:59.664Z,8.18
2019-04-14T19:01:33.161Z,6.55
2019-04-14T19:04:03.109Z,6.92
2019-04-14T19:06:32.489Z,9.08
2019-04-14T19:09:01.822Z,9.17
2019-04-14T19:11:56.149Z,7.28
2019-04-14T19:14:32.248Z,6.65
2019-04-14T19:17:05.701Z,9.03
2019-04-14T19:19:36.633Z,8.78
2019-04-14T19:22:06.306Z,7.80
2019-04-14T19:24:36.001Z,6.92
2019-04-14T19:27:05.602Z,6.65
2019-04-14T19:29:35.428Z,8.08
2019-04-14T19:32:04.898Z,6.15
2019-04-14T19:34:34.188Z,7.00
2019-04-14T19:37:03.512Z,6.85
2019-04-14T19:39:32.916Z,7.28
2019-04-14T19:42:02.424Z,6.08
2019-04-14T19:44:51.138Z,6.67
2019-04-14T19:47:20.426Z,6.83
2019-04-14T19:49:49.947Z,5.97
2019-04-14T19:52:19.295Z,6.33
2019-04-14T19:54:48.609Z,8.83
2019-04-14T19:57:17.920Z,6.70
2019-04-14T19:59:47.247Z,6.33
2019-04-14T20:02:16.584Z,7.00
2019-04-14T20:04:45.975Z,5.92
2019-04-14T20:07:15.463Z,6.53
2019-04-14T20:09:44.732Z,6.70
2019-04-14T20:12:14.669Z,7.10
2019-04-14T20:14:44.340Z,5.13
2019-04-14T20:17:38.580Z,5.62
2019-04-14T20:20:27.175Z,7.33
2019-04-14T20:23:11.580Z,5.73
2019-04-14T20:25:48.233Z,5.53
2019-04-14T20:28:29.909Z,6.42
2019-04-14T20:31:26.959Z,7.60
2019-04-14T20:33:56.265Z,5.97
2019-04-14T20:36:25.586Z,8.70
2019-04-14T20:38:54.918Z,7.87
2019-04-14T20:41:24.253Z,6.25
2019-04-14T20:43:53.584Z,8.13
2019-04-14T20:46:22.970Z,4.72
2019-04-14T20:48:52.349Z,7.47
2019-04-14T20:51:21.697Z,8.47
2019-04-14T20:53:51.086Z,8.55
2019-04-14T20:56:20.519Z,8.57
2019-04-14T20:58:50.050Z,7.00
2019-04-14T21:01:20.629Z,7.58
2019-04-14T21:04:07.875Z,6.93
2019-04-14T21:06:44.685Z,10.85
2019-04-14T21:09:20.979Z,5.70
2019-04-14T21:11:56.652Z,9.37
2019-04-14T21:14:41.319Z,7.60
2019-04-14T21:17:36.197Z,8.45
2019-04-14T21:20:23.637Z,7.87
2019-04-14T21:23:02.535Z,7.33
2019-04-14T21:26:01.169Z,9.25
2019-04-14T21:28:50.171Z,8.23
2019-04-14T21:31:27.368Z,6.55
2019-04-14T21:34:05.665Z,6.08
2019-04-14T21:36:42.586Z,7.55
2019-04-14T21:39:25.637Z,5.50
2019-04-14T21:41:54.970Z,10.95
2019-04-14T21:44:24.232Z,9.07
2019-04-14T21:46:53.957Z,5.45
2019-04-14T21:49:23.440Z,7.80
2019-04-14T21:52:00.545Z,7.57
2019-04-14T21:54:29.897Z,6.72
2019-04-14T21:57:24.108Z,6.62
2019-04-14T22:00:19.184Z,8.93
2019-04-14T22:03:06.611Z,8.00
2019-04-14T22:05:47.766Z,8.75
2019-04-14T22:08:25.028Z,11.53
2019-04-14T22:11:02.821Z,7.75
2019-04-14T22:13:32.411Z,6.77
2019-04-14T22:16:02.072Z,6.58
2019-04-14T22:18:31.531Z,6.90
2019-04-14T22:21:01.353Z,7.50
2019-04-14T22:23:30.921Z,7.05
2019-04-14T22:26:00.568Z,6.97
2019-04-14T22:28:30.386Z,8.03
2019-04-14T22:30:59.932Z,6.05
2019-04-14T22:33:29.257Z,5.90
2019-04-14T22:35:58.567Z,8.23
2019-04-14T22:38:28.200Z,6.60
2019-04-14T22:40:57.873Z,5.95
2019-04-14T22:43:27.626Z,10.93
2019-04-14T22:45:57.549Z,6.70
2019-04-14T22:48:27.478Z,6.12
2019-04-14T22:50:57.254Z,8.05
2019-04-14T22:53:27.056Z,6.80
2019-04-14T22:55:56.973Z,7.65
2019-04-14T22:58:26.615Z,7.78
2019-04-14T23:01:14.019Z,7.45
2019-04-14T23:04:02.227Z,7.57
2019-04-14T23:06:50.720Z,5.58
2019-04-14T23:09:42.311Z,6.60
2019-04-14T23:12:22.542Z,7.53
2019-04-14T23:15:08.797Z,7.72
2019-04-14T23:17:57.021Z,6.23
2019-04-14T23:20:44.241Z,10.78
2019-04-14T23:23:32.720Z,7.17
2019-04-14T23:26:02.457Z,7.40
2019-04-14T23:28:31.826Z,6.83
2019-04-14T23:31:11.796Z,5.77
2019-04-14T23:33:43.017Z,8.83
2019-04-14T23:36:15.467Z,6.03
2019-04-14T23:38:48.117Z,7.17
2019-04-14T23:41:18.729Z,6.20
2019-04-14T23:43:48.724Z,6.87
2019-04-14T23:46:18.684Z,7.00
2019-04-14T23:48:48.077Z,7.03
2019-04-14T23:51:17.828Z,7.03
2019-04-14T23:53:48.358Z,8.78
2019-04-14T23:56:42.982Z,8.05
2019-04-14T23:59:16.828Z,7.15
